createdAt,value
2019-06-07T00:00:39.555Z,99.90
2019-06-07T00:03:03.629Z,99.90
2019-06-07T00:05:33.797Z,99.90
2019-06-07T00:08:07.355Z,99.90
2019-06-07T00:10:37.177Z,99.90
2019-06-07T00:13:07.033Z,99.90
2019-06-07T00:15:36.846Z,99.90
2019-06-07T00:18:11.153Z,99.90
2019-06-07T00:20:38.926Z,99.90
2019-06-07T00:23:11.375Z,99.90
2019-06-07T00:25:40.247Z,99.90
2019-06-07T00:28:10.691Z,99.90
2019-06-07T00:30:51.228Z,99.90
2019-06-07T00:33:16.568Z,99.90
2019-06-07T00:35:44.513Z,99.90
2019-06-07T00:38:14.908Z,99.90
2019-06-07T00:40:45.990Z,99.90
2019-06-07T00:43:17.569Z,99.90
2019-06-07T00:45:47.407Z,99.90
2019-06-07T00:48:27.422Z,99.90
2019-06-07T00:50:49.465Z,99.90
2019-06-07T00:53:29.136Z,99.90
2019-06-07T00:55:50.836Z,99.90
2019-06-07T00:58:24.748Z,99.90
2019-06-07T01:00:52.319Z,99.90
2019-06-07T01:03:25.661Z,99.90
2019-06-07T01:05:54.096Z,99.90
2019-06-07T01:08:27.707Z,99.90
2019-06-07T01:10:55.521Z,99.90
2019-06-07T01:13:26.894Z,99.90
2019-06-07T01:15:56.806Z,99.90
2019-06-07T01:18:37.366Z,99.90
2019-06-07T01:20:58.521Z,99.90
2019-06-07T01:24:05.346Z,99.90
2019-06-07T01:25:59.820Z,99.90
2019-06-07T01:28:30.078Z,99.90
2019-06-07T01:31:00.211Z,99.90
2019-06-07T01:33:49.926Z,99.90
2019-06-07T01:36:02.316Z,99.90
2019-06-07T01:38:32.226Z,99.90
2019-06-07T01:41:02.106Z,99.90
2019-06-07T01:43:31.988Z,99.90
2019-06-07T01:46:01.898Z,99.90
2019-06-07T01:48:48.610Z,99.90
2019-06-07T01:51:05.202Z,99.90
2019-06-07T01:53:35.307Z,99.90
2019-06-07T01:56:05.186Z,99.90
2019-06-07T01:58:35.079Z,99.90
2019-06-07T02:01:05.060Z,99.90
2019-06-07T02:03:35.260Z,99.90
2019-06-07T02:06:05.103Z,99.90
2019-06-07T02:08:34.966Z,99.90
2019-06-07T02:11:04.914Z,99.90
2019-06-07T02:13:34.814Z,99.90
2019-06-07T02:16:04.825Z,99.90
2019-06-07T02:18:35.226Z,99.90
2019-06-07T02:21:05.187Z,99.90
2019-06-07T02:23:35.101Z,99.90
2019-06-07T02:26:05.002Z,99.90
2019-06-07T02:28:44.992Z,99.90
2019-06-07T02:31:06.475Z,99.90
2019-06-07T02:33:40.098Z,99.90
2019-06-07T02:36:08.628Z,99.90
2019-06-07T02:38:38.515Z,99.90
2019-06-07T02:41:08.618Z,99.90
2019-06-07T02:43:38.496Z,99.90
2019-06-07T02:46:28.100Z,99.90
2019-06-07T02:48:49.731Z,99.90
2019-06-07T02:51:19.598Z,99.90
2019-06-07T02:53:49.570Z,99.90
2019-06-07T02:56:48.609Z,99.90
2019-06-07T02:58:51.000Z,99.90
2019-06-07T03:01:21.283Z,99.90
2019-06-07T03:03:51.967Z,99.90
2019-06-07T03:06:22.913Z,99.90
2019-06-07T03:08:55.283Z,99.90
2019-06-07T03:11:28.214Z,99.90
2019-06-07T03:14:00.248Z,99.90
2019-06-07T03:16:39.259Z,99.90
2019-06-07T03:19:14.576Z,99.90
2019-06-07T03:21:45.379Z,99.90
2019-06-07T03:24:15.252Z,99.90
2019-06-07T03:27:32.190Z,99.90
2019-06-07T03:29:17.197Z,99.90
2019-06-07T03:31:48.165Z,99.90
2019-06-07T03:34:21.616Z,99.90
2019-06-07T03:36:51.411Z,99.90
2019-06-07T03:39:21.288Z,99.90
2019-06-07T03:42:05.767Z,99.90
2019-06-07T03:44:22.656Z,99.90
2019-06-07T03:46:52.487Z,99.90
2019-06-07T03:49:23.157Z,99.90
2019-06-07T03:51:53.020Z,99.90
2019-06-07T03:54:22.815Z,99.90
2019-06-07T03:56:52.722Z,99.90
2019-06-07T03:59:22.571Z,99.90
2019-06-07T04:01:52.394Z,99.90
2019-06-07T04:04:22.685Z,99.90
2019-06-07T04:06:52.578Z,99.90
2019-06-07T04:09:22.434Z,99.90
2019-06-07T04:11:52.309Z,99.90
2019-06-07T04:14:23.391Z,99.90
2019-06-07T04:16:53.579Z,99.90
2019-06-07T04:19:23.904Z,99.90
2019-06-07T04:21:53.735Z,99.90
2019-06-07T04:24:23.576Z,99.90
2019-06-07T04:26:53.528Z,99.90
2019-06-07T04:29:35.682Z,99.90
2019-06-07T04:31:54.868Z,99.90
2019-06-07T04:34:25.120Z,99.90
2019-06-07T04:36:59.479Z,99.90
2019-06-07T04:39:33.589Z,99.90
2019-06-07T04:42:02.694Z,99.90
2019-06-07T04:44:37.073Z,99.90
2019-06-07T04:47:06.974Z,99.90
2019-06-07T04:49:43.315Z,99.90
2019-06-07T04:52:09.043Z,99.90
2019-06-07T04:54:45.603Z,99.90
2019-06-07T04:57:10.441Z,99.90
2019-06-07T05:00:11.130Z,99.90
2019-06-07T05:02:11.662Z,99.90
2019-06-07T05:04:42.451Z,99.90
2019-06-07T05:07:13.545Z,99.90
2019-06-07T05:09:43.529Z,99.90
2019-06-07T05:12:13.353Z,99.90
2019-06-07T05:14:44.370Z,99.90
2019-06-07T05:17:14.237Z,99.90
2019-06-07T05:19:44.867Z,99.90
2019-06-07T05:22:14.895Z,99.90
2019-06-07T05:24:44.628Z,99.90
2019-06-07T05:27:14.485Z,99.90
2019-06-07T05:29:58.384Z,99.90
2019-06-07T05:32:16.269Z,99.90
2019-06-07T05:34:47.500Z,99.90
2019-06-07T05:37:17.595Z,99.90
2019-06-07T05:39:47.396Z,99.90
2019-06-07T05:42:17.243Z,99.90
2019-06-07T05:44:47.135Z,99.90
2019-06-07T05:47:17.063Z,99.90
2019-06-07T05:49:47.563Z,99.90
2019-06-07T05:52:17.333Z,99.90
2019-06-07T05:54:47.238Z,99.90
2019-06-07T05:57:17.093Z,99.90
2019-06-07T05:59:47.770Z,99.90
2019-06-07T06:02:22.540Z,99.90
2019-06-07T06:04:49.779Z,99.90
2019-06-07T06:07:19.976Z,99.90
2019-06-07T06:09:49.821Z,99.90
2019-06-07T06:12:33.906Z,99.90
2019-06-07T06:14:51.230Z,99.90
2019-06-07T06:17:21.085Z,99.90
2019-06-07T06:19:53.423Z,99.90
2019-06-07T06:22:22.865Z,99.90
2019-06-07T06:25:30.850Z,99.90
2019-06-07T06:28:03.518Z,99.90
2019-06-07T06:29:58.569Z,99.90
2019-06-07T06:32:41.996Z,99.90
2019-06-07T06:35:00.395Z,99.90
2019-06-07T06:37:30.299Z,99.90
2019-06-07T06:40:00.078Z,99.90
2019-06-07T06:42:29.932Z,99.90
2019-06-07T06:44:59.984Z,99.90
2019-06-07T06:47:29.859Z,99.90
2019-06-07T06:50:01.863Z,99.90
2019-06-07T06:52:31.911Z,99.90
2019-06-07T06:55:01.796Z,99.90
2019-06-07T06:57:32.469Z,99.90
2019-06-07T07:00:02.324Z,99.90
2019-06-07T07:02:32.376Z,99.90
2019-06-07T07:05:02.421Z,99.90
2019-06-07T07:07:32.420Z,99.90
2019-06-07T07:10:03.258Z,99.90
2019-06-07T07:12:33.615Z,99.90
2019-06-07T07:15:03.432Z,99.90
2019-06-07T07:17:50.821Z,99.90
2019-06-07T07:20:05.492Z,99.90
2019-06-07T07:22:35.390Z,99.90
2019-06-07T07:25:05.884Z,99.90
2019-06-07T07:27:35.874Z,99.90
2019-06-07T07:30:35.352Z,99.90
2019-06-07T07:32:38.126Z,99.90
2019-06-07T07:35:08.590Z,99.90
2019-06-07T07:37:38.484Z,99.90
2019-06-07T07:40:55.458Z,99.90
2019-06-07T07:42:40.510Z,99.90
2019-06-07T07:45:10.486Z,99.90
2019-06-07T07:47:58.447Z,99.90
2019-06-07T07:50:12.254Z,99.90
2019-06-07T07:52:42.102Z,99.90
2019-06-07T07:55:12.204Z,99.90
2019-06-07T07:57:42.059Z,99.90
2019-06-07T08:00:49.387Z,99.90
2019-06-07T08:02:43.557Z,99.90
2019-06-07T08:05:23.233Z,99.90
2019-06-07T08:07:49.975Z,99.90
2019-06-07T08:10:18.219Z,99.90
2019-06-07T08:13:08.766Z,99.90
2019-06-07T08:15:19.675Z,99.90
2019-06-07T08:17:51.594Z,99.90
2019-06-07T08:20:21.485Z,99.90
2019-06-07T08:22:52.538Z,99.90
2019-06-07T08:25:22.929Z,99.90
2019-06-07T08:27:56.024Z,99.90
2019-06-07T08:30:48.010Z,99.90
2019-06-07T08:33:12.043Z,99.90
2019-06-07T08:36:05.701Z,99.90
2019-06-07T08:38:24.915Z,99.90
2019-06-07T08:40:32.504Z,99.90
2019-06-07T08:43:18.171Z,99.90
2019-06-07T08:45:34.180Z,99.90
2019-06-07T08:48:17.948Z,99.90
2019-06-07T08:50:36.158Z,99.90
2019-06-07T08:53:12.137Z,99.90
2019-06-07T08:55:37.596Z,99.90
2019-06-07T08:58:08.740Z,99.90
2019-06-07T09:00:46.017Z,99.90
2019-06-07T09:03:10.602Z,99.90
2019-06-07T09:05:41.595Z,99.90
2019-06-07T09:08:29.121Z,99.90
2019-06-07T09:10:42.937Z,99.90
2019-06-07T09:13:12.752Z,99.90
2019-06-07T09:15:42.620Z,99.90
2019-06-07T09:20:48.722Z,99.90
2019-06-07T09:23:18.828Z,99.90
2019-06-07T09:25:57.502Z,99.90
2019-06-07T09:28:21.266Z,99.90
2019-06-07T09:30:51.146Z,99.90
2019-06-07T09:33:20.985Z,99.90
2019-06-07T09:35:56.175Z,99.90
2019-06-07T09:38:26.856Z,99.90
2019-06-07T09:40:58.047Z,99.90
2019-06-07T09:44:00.548Z,99.90
2019-06-07T09:46:04.035Z,99.90
2019-06-07T09:49:10.125Z,99.90
2019-06-07T09:51:09.771Z,99.90
2019-06-07T09:53:34.837Z,99.90
2019-06-07T09:56:08.742Z,99.90
2019-06-07T09:58:53.966Z,99.90
2019-06-07T10:01:13.131Z,99.90
2019-06-07T10:03:39.583Z,99.90
2019-06-07T10:06:13.662Z,99.90
2019-06-07T10:11:16.637Z,99.90
2019-06-07T10:13:46.447Z,99.90
2019-06-07T10:16:16.326Z,99.90
2019-06-07T10:18:46.233Z,99.90
2019-06-07T10:21:16.155Z,99.90
2019-06-07T10:23:46.011Z,99.90
2019-06-07T10:26:15.882Z,99.90
2019-06-07T10:28:45.867Z,99.90
2019-06-07T10:31:15.719Z,99.90
2019-06-07T10:33:45.615Z,99.90
2019-06-07T10:36:15.835Z,99.90
2019-06-07T10:38:45.657Z,99.90
2019-06-07T10:41:15.552Z,99.90
2019-06-07T10:43:45.391Z,99.90
2019-06-07T10:46:15.321Z,99.90
2019-06-07T10:48:45.191Z,99.90
2019-06-07T10:51:15.406Z,99.90
2019-06-07T10:53:45.255Z,99.90
2019-06-07T10:56:15.136Z,99.90
2019-06-07T10:58:45.008Z,99.90
2019-06-07T11:01:14.822Z,99.90
2019-06-07T11:03:44.693Z,99.90
2019-06-07T11:06:14.537Z,99.90
2019-06-07T11:08:44.529Z,99.90
2019-06-07T11:11:14.521Z,99.90
2019-06-07T11:13:44.646Z,99.90
2019-06-07T11:16:15.719Z,99.90
2019-06-07T11:18:46.098Z,99.90
2019-06-07T11:21:16.268Z,99.90
2019-06-07T11:23:46.089Z,99.90
2019-06-07T11:26:16.021Z,99.90
2019-06-07T11:28:45.894Z,99.90
2019-06-07T11:31:15.715Z,99.90
2019-06-07T11:33:45.543Z,99.90
2019-06-07T11:36:15.764Z,99.90
2019-06-07T11:38:45.879Z,99.90
2019-06-07T11:41:15.964Z,99.90
2019-06-07T11:43:46.124Z,99.90
2019-06-07T11:46:17.194Z,99.90
2019-06-07T11:48:47.552Z,99.90
2019-06-07T11:51:18.839Z,99.90
2019-06-07T11:53:49.144Z,99.90
2019-06-07T11:56:18.995Z,99.90
2019-06-07T11:58:48.846Z,99.90
2019-06-07T12:01:18.768Z,99.90
2019-06-07T12:03:48.682Z,99.90
2019-06-07T12:06:18.513Z,99.90
2019-06-07T12:08:48.452Z,99.90
2019-06-07T12:11:18.505Z,99.90
2019-06-07T12:13:48.450Z,99.90
2019-06-07T12:16:19.406Z,99.90
2019-06-07T12:18:49.661Z,99.90
2019-06-07T12:21:19.942Z,99.90
2019-06-07T12:23:49.941Z,99.90
2019-06-07T12:26:20.676Z,99.90
2019-06-07T12:28:50.706Z,99.90
2019-06-07T12:31:21.178Z,99.90
2019-06-07T12:33:51.240Z,99.90
2019-06-07T12:36:22.041Z,99.90
2019-06-07T12:38:52.538Z,99.90
2019-06-07T12:41:22.477Z,99.90
2019-06-07T12:43:52.357Z,99.90
2019-06-07T12:46:27.957Z,99.90
2019-06-07T12:48:53.622Z,99.90
2019-06-07T12:51:23.960Z,99.90
2019-06-07T12:53:53.815Z,99.90
2019-06-07T12:56:24.206Z,99.90
2019-06-07T12:58:54.289Z,99.90
2019-06-07T13:01:24.864Z,99.90
2019-06-07T13:03:55.032Z,99.90
2019-06-07T13:06:25.103Z,99.90
2019-06-07T13:08:54.959Z,99.90
2019-06-07T13:11:29.565Z,99.90
2019-06-07T13:13:56.521Z,99.90
2019-06-07T13:16:26.409Z,99.90
2019-06-07T13:18:56.434Z,99.90
2019-06-07T13:21:26.516Z,99.90
2019-06-07T13:23:56.363Z,99.90
2019-06-07T13:26:26.303Z,99.90
2019-06-07T13:28:56.150Z,99.90
2019-06-07T13:31:27.249Z,99.90
2019-06-07T13:33:57.235Z,99.90
2019-06-07T13:36:28.490Z,99.90
2019-06-07T13:38:58.727Z,99.90
2019-06-07T13:41:40.292Z,99.90
2019-06-07T13:44:00.172Z,99.90
2019-06-07T13:46:29.989Z,99.90
2019-06-07T13:48:59.845Z,99.90
2019-06-07T13:51:33.244Z,99.90
2019-06-07T13:54:02.298Z,99.90
2019-06-07T13:56:32.150Z,99.90
2019-06-07T13:59:02.013Z,99.90
2019-06-07T14:01:31.829Z,99.90
2019-06-07T14:04:01.824Z,99.90
2019-06-07T14:06:31.815Z,99.90
2019-06-07T14:09:01.706Z,99.90
2019-06-07T14:11:49.119Z,99.90
2019-06-07T14:14:03.277Z,99.90
2019-06-07T14:16:33.106Z,99.90
2019-06-07T14:19:02.988Z,99.90
2019-06-07T14:21:33.184Z,99.90
2019-06-07T14:24:03.007Z,99.90
2019-06-07T14:26:33.102Z,99.90
2019-06-07T14:29:03.058Z,99.90
2019-06-07T14:31:33.161Z,99.90
2019-06-07T14:34:03.376Z,99.90
2019-06-07T14:36:34.014Z,99.90
2019-06-07T14:39:04.974Z,99.90
2019-06-07T14:41:35.354Z,99.90
2019-06-07T14:44:05.671Z,99.90
2019-06-07T14:46:35.457Z,99.90
2019-06-07T14:49:05.416Z,99.90
2019-06-07T14:51:35.757Z,99.90
2019-06-07T14:54:05.735Z,99.90
2019-06-07T14:56:35.721Z,99.90
2019-06-07T14:59:05.950Z,99.90
2019-06-07T15:01:35.793Z,99.90
2019-06-07T15:04:06.088Z,99.90
2019-06-07T15:06:36.062Z,99.90
2019-06-07T15:09:07.296Z,99.90
2019-06-07T15:11:37.152Z,99.90
2019-06-07T15:14:06.968Z,99.90
2019-06-07T15:16:37.952Z,99.90
2019-06-07T15:19:08.046Z,99.90
2019-06-07T15:21:39.163Z,99.90
2019-06-07T15:24:09.332Z,99.90
2019-06-07T15:26:39.282Z,99.90
2019-06-07T15:29:09.182Z,99.90
2019-06-07T15:31:39.006Z,99.90
2019-06-07T15:34:08.902Z,99.90
2019-06-07T15:36:39.006Z,99.90
2019-06-07T15:39:09.599Z,99.90
2019-06-07T15:41:39.998Z,99.90
2019-06-07T15:44:10.105Z,99.90
2019-06-07T15:46:40.339Z,99.90
2019-06-07T15:49:10.433Z,99.90
2019-06-07T15:51:41.108Z,99.90
2019-06-07T15:54:11.114Z,99.90
2019-06-07T15:56:41.423Z,99.70
2019-06-07T15:59:11.401Z,97.30
2019-06-07T16:01:42.105Z,97.60
2019-06-07T16:04:12.980Z,99.90
2019-06-07T16:06:43.489Z,99.60
2019-06-07T16:09:13.571Z,99.90
2019-06-07T16:11:43.909Z,99.90
2019-06-07T16:14:14.071Z,99.60
2019-06-07T16:16:43.910Z,99.90
2019-06-07T16:19:13.837Z,99.90
2019-06-07T16:21:43.806Z,99.90
2019-06-07T16:24:13.603Z,99.90
2019-06-07T16:26:44.596Z,99.90
2019-06-07T16:29:14.927Z,99.90
2019-06-07T16:31:45.201Z,99.90
2019-06-07T16:34:15.377Z,99.90
2019-06-07T16:36:46.824Z,99.90
2019-06-07T16:39:17.088Z,99.90
2019-06-07T16:41:46.992Z,99.90
2019-06-07T16:44:17.009Z,99.90
2019-06-07T16:46:46.775Z,99.90
2019-06-07T16:49:16.609Z,99.90
2019-06-07T16:51:46.879Z,99.90
2019-06-07T16:54:16.757Z,99.90
2019-06-07T16:56:50.818Z,99.90
2019-06-07T16:59:18.145Z,99.90
2019-06-07T17:01:49.492Z,99.90
2019-06-07T17:04:19.511Z,99.90
2019-06-07T17:06:49.426Z,99.90
2019-06-07T17:09:19.299Z,99.90
2019-06-07T17:11:49.161Z,99.90
2019-06-07T17:14:18.958Z,99.90
2019-06-07T17:16:50.262Z,99.90
2019-06-07T17:19:20.580Z,99.90
2019-06-07T17:21:50.774Z,99.90
2019-06-07T17:24:20.986Z,99.90
2019-06-07T17:26:50.915Z,99.90
2019-06-07T17:29:20.782Z,99.90
2019-06-07T17:31:50.690Z,99.90
2019-06-07T17:34:20.562Z,99.90
2019-06-07T17:36:50.842Z,99.90
2019-06-07T17:39:21.141Z,99.90
2019-06-07T17:42:01.436Z,99.90
2019-06-07T17:44:22.487Z,99.90
2019-06-07T17:46:52.355Z,99.90
2019-06-07T17:49:22.226Z,99.90
2019-06-07T17:51:52.361Z,99.90
2019-06-07T17:54:22.213Z,99.90
2019-06-07T17:56:53.211Z,99.90
2019-06-07T17:59:23.264Z,98.90
2019-06-07T18:02:13.558Z,99.50
2019-06-07T18:04:24.576Z,99.90
2019-06-07T18:06:55.140Z,99.90
2019-06-07T18:09:26.104Z,99.90
2019-06-07T18:11:55.962Z,99.20
2019-06-07T18:14:25.860Z,99.90
2019-06-07T18:16:55.724Z,99.10
2019-06-07T18:19:25.588Z,98.40
2019-06-07T18:21:58.812Z,98.40
2019-06-07T18:24:27.272Z,97.50
2019-06-07T18:26:57.129Z,99.70
2019-06-07T18:29:26.915Z,99.00
2019-06-07T18:31:56.834Z,98.00
2019-06-07T18:34:26.836Z,98.30
2019-06-07T18:36:56.795Z,98.40
2019-06-07T18:39:26.771Z,98.00
2019-06-07T18:41:56.706Z,97.50
2019-06-07T18:44:26.923Z,99.90
2019-06-07T18:46:56.725Z,99.90
2019-06-07T18:49:26.580Z,99.90
2019-06-07T18:52:14.643Z,99.90
2019-06-07T18:54:44.581Z,99.90
2019-06-07T18:57:14.369Z,99.90
2019-06-07T18:59:44.296Z,99.60
2019-06-07T19:02:14.452Z,99.80
2019-06-07T19:04:44.261Z,99.90
2019-06-07T19:07:14.108Z,99.90
2019-06-07T19:09:44.215Z,99.90
2019-06-07T19:12:14.042Z,99.90
2019-06-07T19:14:43.850Z,99.90
2019-06-07T19:17:13.765Z,99.90
2019-06-07T19:19:43.698Z,99.90
2019-06-07T19:22:13.524Z,99.90
2019-06-07T19:24:43.433Z,99.90
2019-06-07T19:27:13.265Z,99.90
2019-06-07T19:29:43.134Z,99.90
2019-06-07T19:32:13.044Z,99.90
2019-06-07T19:34:42.883Z,99.90
2019-06-07T19:37:12.822Z,99.90
2019-06-07T19:39:42.814Z,99.90
2019-06-07T19:42:12.635Z,99.90
2019-06-07T19:44:53.123Z,99.90
2019-06-07T19:47:14.230Z,99.90
2019-06-07T19:49:44.073Z,99.90
2019-06-07T19:52:14.268Z,99.90
2019-06-07T19:54:44.172Z,99.90
2019-06-07T19:57:13.985Z,99.90
2019-06-07T19:59:43.957Z,99.90
2019-06-07T20:02:13.822Z,99.90
2019-06-07T20:04:43.634Z,99.90
2019-06-07T20:07:13.850Z,99.90
2019-06-07T20:09:44.028Z,99.90
2019-06-07T20:12:13.887Z,99.90
2019-06-07T20:14:43.683Z,99.90
2019-06-07T20:17:13.137Z,99.90
2019-06-07T20:19:42.924Z,99.90
2019-06-07T20:22:13.195Z,99.90
2019-06-07T20:24:43.122Z,99.90
2019-06-07T20:27:12.926Z,99.90
2019-06-07T20:29:42.735Z,99.90
2019-06-07T20:32:12.954Z,99.90
2019-06-07T20:34:44.619Z,99.90
2019-06-07T20:37:14.562Z,99.90
2019-06-07T20:39:44.450Z,99.90
2019-06-07T20:42:14.428Z,99.90
2019-06-07T20:44:44.265Z,99.90
2019-06-07T20:47:14.246Z,99.90
2019-06-07T20:49:44.155Z,99.90
2019-06-07T20:52:14.326Z,99.90
2019-06-07T20:54:44.232Z,99.90
2019-06-07T20:57:14.087Z,99.90
2019-06-07T20:59:43.953Z,99.90
2019-06-07T21:02:13.919Z,99.90
2019-06-07T21:04:43.762Z,99.90
2019-06-07T21:07:13.593Z,99.90
2019-06-07T21:09:43.481Z,99.90
2019-06-07T21:12:13.307Z,99.90
2019-06-07T21:14:43.248Z,99.90
2019-06-07T21:17:13.125Z,99.90
2019-06-07T21:19:43.025Z,99.90
2019-06-07T21:22:12.812Z,99.90
2019-06-07T21:24:42.964Z,99.90
2019-06-07T21:27:12.830Z,99.90
2019-06-07T21:29:42.691Z,99.90
2019-06-07T21:32:12.559Z,99.90
2019-06-07T21:34:42.361Z,99.90
2019-06-07T21:37:12.298Z,99.90
2019-06-07T21:39:42.474Z,99.90
2019-06-07T21:42:12.488Z,99.90
2019-06-07T21:44:42.339Z,99.90
2019-06-07T21:47:12.783Z,99.90
2019-06-07T21:49:42.705Z,99.90
2019-06-07T21:52:12.937Z,99.90
2019-06-07T21:54:43.339Z,99.90
2019-06-07T21:57:13.289Z,99.90
2019-06-07T21:59:43.271Z,99.90
2019-06-07T22:02:13.759Z,99.90
2019-06-07T22:04:43.899Z,99.90
2019-06-07T22:07:13.791Z,99.90
2019-06-07T22:09:43.909Z,99.90
2019-06-07T22:12:14.292Z,99.90
2019-06-07T22:14:44.295Z,99.90
2019-06-07T22:17:14.537Z,99.90
2019-06-07T22:19:44.523Z,99.90
2019-06-07T22:22:14.911Z,99.90
2019-06-07T22:24:44.938Z,99.90
2019-06-07T22:27:15.685Z,99.90
2019-06-07T22:29:45.518Z,99.90
2019-06-07T22:32:15.441Z,99.90
2019-06-07T22:34:45.275Z,99.90
2019-06-07T22:37:17.582Z,99.90
2019-06-07T22:39:46.922Z,99.90
2019-06-07T22:42:16.823Z,99.90
2019-06-07T22:44:46.671Z,99.90
2019-06-07T22:47:16.539Z,99.90
2019-06-07T22:49:46.358Z,99.90
2019-06-07T22:52:17.307Z,99.90
2019-06-07T22:54:47.971Z,99.90
2019-06-07T22:57:22.275Z,99.90
2019-06-07T22:59:52.179Z,99.90
2019-06-07T23:02:21.985Z,99.90
2019-06-07T23:04:51.786Z,99.90
2019-06-07T23:07:21.720Z,99.90
2019-06-07T23:09:51.619Z,99.90
2019-06-07T23:12:21.410Z,99.90
2019-06-07T23:14:51.256Z,99.90
2019-06-07T23:17:21.155Z,99.90
2019-06-07T23:19:51.006Z,99.90
2019-06-07T23:22:20.853Z,99.90
2019-06-07T23:24:50.677Z,99.90
2019-06-07T23:27:20.809Z,99.90
2019-06-07T23:29:50.793Z,99.90
2019-06-07T23:32:21.598Z,99.90
2019-06-07T23:34:51.544Z,99.90
2019-06-07T23:37:21.507Z,99.90
2019-06-07T23:39:51.655Z,99.90
2019-06-07T23:42:21.849Z,99.90
2019-06-07T23:44:52.087Z,99.90
2019-06-07T23:47:22.418Z,99.90
2019-06-07T23:49:52.491Z,99.90
2019-06-07T23:52:23.573Z,99.90
2019-06-07T23:54:53.834Z,99.90
2019-06-07T23:57:23.676Z,99.90
2019-06-07T23:59:53.505Z,99.90
